Time;durP1;ratioP1;P1;durP2;ratioP2;P2;SDS_P1;SDS_P2;PMS_P1;PMS_P2;Temp;Humidity;BMP_temperature;BMP_pressure;BME280_temperature;BME280_humidity;BME280_pressure;Samples;Min_cycle;Max_cycle;Signal;HPM_P1;HPM_P2
2022/08/16 00:02:18;;;;;;;11.57;9.18;;;22.70;99.90;;;;;;5006959;28;20212;-72
2022/08/16 00:05:05;;;;;;;9.57;8.05;;;22.70;99.90;;;;;;5005896;28;20211;-72
2022/08/16 00:07:50;;;;;;;9.23;8.35;;;22.70;99.90;;;;;;5003246;28;20183;-73
2022/08/16 00:10:34;;;;;;;9.75;7.97;;;22.70;99.90;;;;;;5005598;28;20288;-73
2022/08/16 00:13:19;;;;;;;11.73;7.95;;;22.60;99.90;;;;;;4998023;28;20239;-73
2022/08/16 00:16:04;;;;;;;10.10;8.48;;;22.70;99.90;;;;;;4986522;28;20175;-72
2022/08/16 00:18:49;;;;;;;10.32;8.95;;;22.70;99.90;;;;;;4996733;28;20184;-72
2022/08/16 00:21:34;;;;;;;8.98;7.97;;;22.70;99.90;;;;;;4997874;28;20212;-72
2022/08/16 00:24:19;;;;;;;9.65;8.65;;;22.60;99.90;;;;;;5012194;28;20200;-73
2022/08/16 00:27:04;;;;;;;8.73;7.55;;;22.60;99.90;;;;;;5011222;28;20258;-72
2022/08/16 00:29:49;;;;;;;12.20;8.48;;;22.60;99.90;;;;;;4991870;28;20243;-73
2022/08/16 00:32:34;;;;;;;10.15;8.43;;;22.60;99.90;;;;;;4995343;28;20215;-72
2022/08/16 00:35:22;;;;;;;9.38;7.97;;;22.60;99.90;;;;;;5004253;28;20241;-72
2022/08/16 00:38:07;;;;;;;9.95;8.38;;;22.60;99.90;;;;;;5001781;28;20320;-73
2022/08/16 00:40:53;;;;;;;9.55;7.97;;;22.50;99.90;;;;;;5000304;28;20220;-72
2022/08/16 00:43:38;;;;;;;10.07;8.57;;;22.50;99.90;;;;;;5001663;28;20305;-73
2022/08/16 00:46:31;;;;;;;11.15;8.30;;;22.50;99.90;;;;;;5000085;28;20195;-72
2022/08/16 00:49:15;;;;;;;10.35;8.93;;;22.50;99.90;;;;;;5006482;28;20196;-72
2022/08/16 00:52:00;;;;;;;9.63;8.15;;;22.50;99.90;;;;;;5005375;28;20255;-72
2022/08/16 00:54:44;;;;;;;9.18;7.97;;;22.50;99.90;;;;;;4991503;28;20222;-72
2022/08/16 00:57:29;;;;;;;8.50;7.40;;;22.50;99.90;;;;;;4991313;28;20668;-73
2022/08/16 01:00:15;;;;;;;10.90;7.57;;;22.50;99.90;;;;;;5004111;28;20247;-73
2022/08/16 01:03:12;;;;;;;7.68;6.60;;;22.50;99.90;;;;;;4985842;28;20215;-72
2022/08/16 01:05:56;;;;;;;9.00;6.65;;;22.50;99.90;;;;;;5004880;28;20765;-72
2022/08/16 01:08:43;;;;;;;7.30;6.57;;;22.50;99.90;;;;;;4991405;28;20207;-73
2022/08/16 01:11:27;;;;;;;9.25;6.60;;;22.40;99.90;;;;;;4992711;28;20207;-72
2022/08/16 01:14:23;;;;;;;10.70;7.22;;;22.40;99.90;;;;;;4987540;28;20306;-72
2022/08/16 01:17:08;;;;;;;9.18;7.38;;;22.30;99.90;;;;;;4991255;28;20232;-72
2022/08/16 01:19:57;;;;;;;10.75;6.90;;;22.20;99.90;;;;;;5006000;28;20235;-72
2022/08/16 01:23:02;;;;;;;8.13;6.60;;;22.20;99.90;;;;;;5003892;28;20647;-72
2022/08/16 01:25:51;;;;;;;9.25;6.88;;;22.10;99.90;;;;;;5003519;28;20195;-72
2022/08/16 01:28:35;;;;;;;8.15;7.30;;;22.00;99.90;;;;;;5006568;28;20195;-72
2022/08/16 01:31:21;;;;;;;9.68;7.05;;;21.90;99.90;;;;;;4997170;28;20191;-71
2022/08/16 01:34:06;;;;;;;7.13;6.35;;;21.90;99.90;;;;;;5005210;28;20224;-72
2022/08/16 01:37:01;;;;;;;7.72;6.82;;;21.80;99.90;;;;;;4998497;28;20204;-72
2022/08/16 01:39:45;;;;;;;7.47;6.57;;;21.80;99.90;;;;;;4992059;28;20369;-72
2022/08/16 01:42:29;;;;;;;7.65;6.45;;;21.80;99.90;;;;;;4995714;28;20755;-71
2022/08/16 01:45:15;;;;;;;7.72;6.93;;;21.70;99.90;;;;;;5001412;28;20188;-71
2022/08/16 01:47:59;;;;;;;8.18;7.07;;;21.70;99.90;;;;;;4989217;28;20210;-71
2022/08/16 01:50:44;;;;;;;10.68;7.05;;;21.70;99.90;;;;;;4986019;28;20284;-72
2022/08/16 01:53:29;;;;;;;9.88;7.60;;;21.60;99.90;;;;;;4996310;28;20230;-71
2022/08/16 01:56:13;;;;;;;9.32;7.18;;;21.60;99.90;;;;;;4991929;28;20180;-71
2022/08/16 01:59:00;;;;;;;7.82;7.03;;;21.60;99.90;;;;;;4991817;28;20267;-71
2022/08/16 02:01:46;;;;;;;9.20;7.47;;;21.50;99.90;;;;;;5002067;28;20220;-71
2022/08/16 02:04:32;;;;;;;9.30;7.10;;;21.40;99.90;;;;;;4989886;28;20191;-72
2022/08/16 02:07:19;;;;;;;9.32;8.00;;;21.30;99.90;;;;;;4992960;28;20187;-71
2022/08/16 02:10:06;;;;;;;7.93;7.13;;;21.30;99.90;;;;;;5006456;28;20300;-71
2022/08/16 02:12:51;;;;;;;8.57;7.63;;;21.30;99.90;;;;;;5005689;28;20220;-72
2022/08/16 02:15:36;;;;;;;11.07;7.93;;;21.30;99.90;;;;;;5005834;28;20195;-71
2022/08/16 02:18:20;;;;;;;9.68;7.60;;;21.30;99.90;;;;;;4994903;28;20246;-71
2022/08/16 02:21:06;;;;;;;10.55;8.32;;;21.30;99.90;;;;;;5004378;28;20239;-72
2022/08/16 02:23:50;;;;;;;9.75;8.27;;;21.20;99.90;;;;;;5005731;28;20248;-71
2022/08/16 02:26:34;;;;;;;9.18;8.30;;;21.20;99.90;;;;;;4997953;28;20288;-71
2022/08/16 02:29:19;;;;;;;8.95;8.10;;;21.10;99.90;;;;;;5004894;28;20245;-72
2022/08/16 02:32:04;;;;;;;9.88;8.77;;;21.10;99.90;;;;;;5005479;28;20220;-71
2022/08/16 02:34:48;;;;;;;11.80;9.23;;;21.10;99.90;;;;;;4990441;28;20278;-71
2022/08/16 02:37:32;;;;;;;9.93;8.68;;;21.10;99.90;;;;;;5001475;28;20220;-71
2022/08/16 02:40:18;;;;;;;11.77;9.73;;;21.00;99.90;;;;;;4998214;28;20196;-72
2022/08/16 02:43:02;;;;;;;10.20;9.20;;;21.00;99.90;;;;;;5010940;28;20211;-71
2022/08/16 02:45:46;;;;;;;13.18;9.38;;;20.90;99.90;;;;;;5011444;28;20243;-71
2022/08/16 02:48:30;;;;;;;11.70;9.52;;;20.90;99.90;;;;;;4992276;28;20272;-72
2022/08/16 02:51:15;;;;;;;10.95;9.85;;;20.90;99.90;;;;;;4998895;28;20231;-72
2022/08/16 02:54:00;;;;;;;10.70;9.70;;;20.90;99.90;;;;;;4991340;28;20739;-72
2022/08/16 02:56:45;;;;;;;10.85;9.65;;;20.90;99.90;;;;;;4993704;28;20250;-72
2022/08/16 02:59:29;;;;;;;12.13;10.63;;;20.90;99.90;;;;;;5008954;28;20230;-71
2022/08/16 03:02:13;;;;;;;11.40;10.40;;;20.90;99.90;;;;;;5002204;28;20224;-72
2022/08/16 03:04:58;;;;;;;12.10;10.73;;;20.90;99.90;;;;;;5007121;28;20280;-71
2022/08/16 03:07:42;;;;;;;12.18;10.77;;;20.90;99.90;;;;;;5004296;28;20200;-72
2022/08/16 03:10:26;;;;;;;12.40;10.55;;;20.90;99.90;;;;;;5003715;28;20188;-72
2022/08/16 03:13:11;;;;;;;12.18;10.50;;;20.90;99.90;;;;;;5006434;28;20227;-72
2022/08/16 03:15:55;;;;;;;12.25;11.07;;;20.90;99.90;;;;;;4992817;28;20195;-71
2022/08/16 03:18:40;;;;;;;14.27;11.73;;;20.80;99.90;;;;;;5007250;28;20247;-72
2022/08/16 03:21:24;;;;;;;15.13;11.23;;;20.80;99.90;;;;;;4990209;28;20192;-71
2022/08/16 03:24:08;;;;;;;14.07;11.80;;;20.80;99.90;;;;;;4991771;28;20246;-72
2022/08/16 03:26:53;;;;;;;12.88;11.23;;;20.80;99.90;;;;;;5004434;28;20242;-72
2022/08/16 03:29:37;;;;;;;12.93;11.57;;;20.80;99.90;;;;;;5005923;28;20231;-72
2022/08/16 03:32:21;;;;;;;17.30;11.65;;;20.80;99.90;;;;;;4993065;28;20212;-72
2022/08/16 03:35:07;;;;;;;13.85;12.45;;;20.80;99.90;;;;;;4990989;28;20247;-72
2022/08/16 03:37:55;;;;;;;12.80;11.50;;;20.70;99.90;;;;;;4996953;28;20183;-72
2022/08/16 03:40:41;;;;;;;14.98;13.40;;;20.70;99.90;;;;;;5006034;28;20239;-72
2022/08/16 03:43:26;;;;;;;16.20;13.60;;;20.70;99.90;;;;;;5007247;28;20754;-72
2022/08/16 03:46:11;;;;;;;18.33;13.45;;;20.70;99.90;;;;;;4994258;28;20204;-72
2022/08/16 03:48:56;;;;;;;13.80;12.45;;;20.70;99.90;;;;;;5006956;28;20187;-72
2022/08/16 03:51:41;;;;;;;15.48;11.80;;;20.60;99.90;;;;;;4992928;28;20227;-72
2022/08/16 03:54:26;;;;;;;16.85;10.85;;;20.60;99.90;;;;;;5004860;28;20238;-72
2022/08/16 03:57:10;;;;;;;13.68;11.70;;;20.60;99.90;;;;;;4991170;28;20277;-72
2022/08/16 03:59:54;;;;;;;12.48;11.18;;;20.50;99.90;;;;;;4993993;28;20203;-72
2022/08/16 04:02:40;;;;;;;12.07;10.77;;;20.50;99.90;;;;;;5007382;28;20305;-72
2022/08/16 04:05:24;;;;;;;13.35;10.43;;;20.40;99.90;;;;;;4994031;28;20188;-72
2022/08/16 04:08:08;;;;;;;11.43;10.25;;;20.40;99.90;;;;;;4990321;28;20204;-72
2022/08/16 04:10:54;;;;;;;11.18;10.18;;;20.40;99.90;;;;;;5002397;28;20802;-72
2022/08/16 04:13:38;;;;;;;10.73;9.70;;;20.40;99.90;;;;;;4988110;28;20226;-72
2022/08/16 04:16:23;;;;;;;13.73;10.18;;;20.40;99.90;;;;;;4998417;28;20185;-72
2022/08/16 04:19:07;;;;;;;16.48;10.02;;;20.40;99.90;;;;;;5007376;28;20702;-72
2022/08/16 04:21:51;;;;;;;13.50;11.10;;;20.40;99.90;;;;;;5008276;28;20219;-72
2022/08/16 04:24:36;;;;;;;14.57;10.73;;;20.30;99.90;;;;;;5006126;28;20187;-72
2022/08/16 04:27:20;;;;;;;12.40;10.07;;;20.30;99.90;;;;;;4987356;28;20179;-72
2022/08/16 04:30:09;;;;;;;13.45;11.25;;;20.30;99.90;;;;;;4999254;28;20194;-71
2022/08/16 04:32:53;;;;;;;14.77;11.48;;;20.30;99.90;;;;;;4990396;28;20330;-72
2022/08/16 04:35:38;;;;;;;13.52;12.18;;;20.40;99.90;;;;;;4989687;28;20636;-72
2022/08/16 04:38:22;;;;;;;16.25;11.48;;;20.30;99.90;;;;;;4988068;28;20559;-72
2022/08/16 04:41:07;;;;;;;13.65;10.65;;;20.30;99.90;;;;;;5008071;28;20259;-72
2022/08/16 04:43:51;;;;;;;17.30;12.60;;;20.30;99.90;;;;;;5002376;28;20731;-71
2022/08/16 04:46:34;;;;;;;13.88;11.63;;;20.30;99.90;;;;;;4995723;28;20315;-71
2022/08/16 04:49:21;;;;;;;16.67;12.38;;;20.30;99.90;;;;;;5005274;28;20208;-72
2022/08/16 04:52:05;;;;;;;18.15;12.57;;;20.30;99.90;;;;;;5004428;28;20322;-72
2022/08/16 04:54:50;;;;;;;14.52;12.63;;;20.30;99.90;;;;;;5004283;28;20363;-72
2022/08/16 04:57:35;;;;;;;13.57;12.30;;;20.30;99.90;;;;;;5000365;28;20272;-72
2022/08/16 05:00:23;;;;;;;15.60;14.00;;;20.30;99.90;;;;;;4985682;28;20304;-72
2022/08/16 05:03:10;;;;;;;16.33;14.48;;;20.30;99.90;;;;;;4994096;28;20235;-72
2022/08/16 05:05:55;;;;;;;16.42;14.73;;;20.30;99.90;;;;;;5002462;28;20203;-72
2022/08/16 05:08:39;;;;;;;15.82;14.25;;;20.30;99.90;;;;;;5008973;28;20195;-72
2022/08/16 05:11:26;;;;;;;16.83;14.93;;;20.30;99.90;;;;;;5003480;28;20184;-72
2022/08/16 05:14:11;;;;;;;16.33;13.88;;;20.40;99.90;;;;;;4998023;28;20216;-72
2022/08/16 05:16:55;;;;;;;17.48;15.30;;;20.40;99.90;;;;;;4989483;28;20716;-72
2022/08/16 05:19:39;;;;;;;16.10;14.32;;;20.40;99.90;;;;;;5003946;28;20220;-72
2022/08/16 05:22:23;;;;;;;17.88;16.02;;;20.50;99.90;;;;;;4986546;28;20216;-72
2022/08/16 05:25:09;;;;;;;18.05;15.05;;;20.50;99.90;;;;;;4993615;28;20212;-72
2022/08/16 05:27:54;;;;;;;18.30;16.45;;;20.50;99.90;;;;;;4997571;28;20196;-72
2022/08/16 05:30:38;;;;;;;18.55;16.65;;;20.50;99.90;;;;;;5000890;28;20298;-72
2022/08/16 05:33:24;;;;;;;19.52;16.88;;;20.50;99.90;;;;;;5004367;28;20267;-72
2022/08/16 05:36:09;;;;;;;23.15;17.52;;;20.50;99.90;;;;;;4996169;28;20223;-72
2022/08/16 05:38:53;;;;;;;19.38;17.17;;;20.40;99.90;;;;;;4997365;28;20317;-72
2022/08/16 05:41:37;;;;;;;19.63;17.70;;;20.40;99.90;;;;;;4998515;28;20199;-72
2022/08/16 05:44:23;;;;;;;19.88;17.52;;;20.50;99.90;;;;;;5006804;28;20227;-71
2022/08/16 05:47:07;;;;;;;19.27;17.17;;;20.50;99.90;;;;;;4987382;28;20288;-72
2022/08/16 05:49:51;;;;;;;23.98;18.73;;;20.50;99.90;;;;;;5004141;28;20199;-72
2022/08/16 05:52:35;;;;;;;22.52;17.15;;;20.60;99.90;;;;;;5006137;28;20239;-73
2022/08/16 05:55:19;;;;;;;23.35;18.17;;;20.60;99.90;;;;;;5006410;28;20220;-72
2022/08/16 05:58:03;;;;;;;20.95;18.25;;;20.60;99.90;;;;;;5000206;28;20573;-73
2022/08/16 06:00:48;;;;;;;23.00;18.73;;;20.60;99.90;;;;;;5003415;28;20268;-73
2022/08/16 06:03:31;;;;;;;21.40;16.67;;;20.70;99.90;;;;;;5007662;28;20703;-73
2022/08/16 06:06:17;;;;;;;20.92;18.48;;;20.70;99.90;;;;;;4994262;28;20200;-73
2022/08/16 06:09:01;;;;;;;21.95;17.75;;;20.80;99.90;;;;;;4990145;28;20688;-73
2022/08/16 06:11:46;;;;;;;23.45;18.17;;;20.80;99.90;;;;;;5005252;28;20262;-73
2022/08/16 06:14:31;;;;;;;21.83;18.27;;;20.80;99.90;;;;;;5010752;28;20255;-73
2022/08/16 06:17:15;;;;;;;22.95;17.35;;;20.80;99.90;;;;;;4989919;28;20179;-73
2022/08/16 06:19:59;;;;;;;27.80;18.40;;;20.90;99.90;;;;;;5007703;28;20653;-73
2022/08/16 06:22:44;;;;;;;25.67;18.45;;;20.90;99.90;;;;;;4994309;28;20223;-73
2022/08/16 06:25:28;;;;;;;23.42;18.73;;;20.90;99.90;;;;;;4992884;28;20200;-70
2022/08/16 06:28:12;;;;;;;21.08;18.88;;;20.90;99.90;;;;;;5007058;28;20184;-70
2022/08/16 06:30:57;;;;;;;27.92;22.17;;;20.90;99.90;;;;;;4996988;28;20268;-70
2022/08/16 06:33:42;;;;;;;29.83;20.52;;;20.90;99.90;;;;;;4990577;28;20268;-71
2022/08/16 06:36:28;;;;;;;26.13;21.70;;;21.00;99.90;;;;;;5001710;28;20234;-70
2022/08/16 06:39:12;;;;;;;28.27;22.02;;;21.10;99.90;;;;;;5001076;28;20192;-70
2022/08/16 06:41:57;;;;;;;28.60;21.48;;;21.10;99.90;;;;;;5001233;28;20263;-70
2022/08/16 06:44:41;;;;;;;25.15;21.27;;;21.20;99.90;;;;;;5005806;28;20722;-70
2022/08/16 06:47:25;;;;;;;27.10;21.08;;;21.20;99.90;;;;;;4990960;28;20672;-70
2022/08/16 06:50:10;;;;;;;25.75;22.55;;;21.20;99.90;;;;;;4991665;28;20235;-70
2022/08/16 06:52:54;;;;;;;30.30;23.05;;;21.30;99.90;;;;;;5002341;28;20231;-70
2022/08/16 06:55:39;;;;;;;26.17;22.90;;;21.30;99.90;;;;;;4990378;28;20192;-70
2022/08/16 06:58:23;;;;;;;30.73;23.25;;;21.30;99.90;;;;;;5004560;28;20247;-70
2022/08/16 07:01:07;;;;;;;35.58;24.98;;;21.30;99.90;;;;;;4995862;28;20192;-70
2022/08/16 07:03:51;;;;;;;32.63;22.85;;;21.30;99.90;;;;;;5007135;28;20194;-70
2022/08/16 07:06:35;;;;;;;28.30;22.38;;;21.40;99.90;;;;;;5011122;28;20299;-70
2022/08/16 07:09:20;;;;;;;26.10;21.80;;;21.40;99.90;;;;;;5002624;28;20724;-69
2022/08/16 07:12:04;;;;;;;24.48;21.88;;;21.50;99.90;;;;;;4995566;28;20232;-70
2022/08/16 07:14:48;;;;;;;24.77;21.10;;;21.50;99.90;;;;;;5012301;28;20223;-70
2022/08/16 07:17:33;;;;;;;28.13;22.73;;;21.50;99.90;;;;;;4992727;28;20234;-70
2022/08/16 07:20:21;;;;;;;24.90;22.25;;;21.60;99.90;;;;;;4999215;28;20663;-70
2022/08/16 07:23:07;;;;;;;24.98;22.17;;;21.60;99.90;;;;;;4992597;28;20296;-70
2022/08/16 07:25:53;;;;;;;23.98;21.08;;;21.70;99.90;;;;;;4990535;28;20188;-70
2022/08/16 07:28:37;;;;;;;24.08;20.55;;;21.70;99.90;;;;;;4992580;28;20189;-70
2022/08/16 07:31:22;;;;;;;23.73;20.52;;;21.80;99.90;;;;;;5006043;28;20695;-71
2022/08/16 07:34:06;;;;;;;21.95;19.65;;;21.80;99.90;;;;;;4982286;28;20314;-71
2022/08/16 07:36:50;;;;;;;25.27;19.58;;;21.80;99.90;;;;;;4993845;28;20196;-70
2022/08/16 07:39:34;;;;;;;26.48;19.27;;;21.90;99.90;;;;;;4997412;28;20193;-70
2022/08/16 07:42:19;;;;;;;21.80;19.25;;;21.90;99.90;;;;;;5005796;28;20212;-70
2022/08/16 07:45:04;;;;;;;22.27;18.77;;;21.90;99.90;;;;;;4994329;28;20273;-70
2022/08/16 07:47:49;;;;;;;22.20;18.60;;;22.00;99.90;;;;;;5004195;28;20243;-70
2022/08/16 07:50:33;;;;;;;19.55;17.48;;;22.00;99.90;;;;;;5002521;28;20193;-70
2022/08/16 07:53:17;;;;;;;21.50;17.67;;;22.10;99.90;;;;;;4984257;28;20223;-70
2022/08/16 07:56:01;;;;;;;19.25;17.30;;;22.10;99.90;;;;;;5003569;28;20196;-70
2022/08/16 07:58:45;;;;;;;21.42;16.05;;;22.20;99.90;;;;;;5006824;28;20268;-70
2022/08/16 08:01:30;;;;;;;23.67;16.88;;;22.20;99.90;;;;;;5000551;28;20204;-70
2022/08/16 08:04:15;;;;;;;17.90;15.98;;;22.20;99.90;;;;;;4986480;28;20204;-70
2022/08/16 08:06:59;;;;;;;18.70;15.05;;;22.20;99.90;;;;;;5000367;28;20208;-70
2022/08/16 08:09:43;;;;;;;16.35;14.55;;;22.30;99.90;;;;;;4999501;28;20288;-71
2022/08/16 08:12:27;;;;;;;17.00;15.30;;;22.40;99.90;;;;;;5001260;28;20214;-70
2022/08/16 08:15:11;;;;;;;17.65;15.48;;;22.40;99.90;;;;;;5000958;28;20218;-70
2022/08/16 08:17:57;;;;;;;17.15;15.40;;;22.50;99.90;;;;;;5002286;28;20227;-70
2022/08/16 08:20:43;;;;;;;17.88;14.73;;;22.50;99.90;;;;;;5000815;28;20200;-71
2022/08/16 08:23:28;;;;;;;16.50;14.80;;;22.50;99.90;;;;;;4988471;28;20267;-70
2022/08/16 08:26:13;;;;;;;18.23;14.32;;;22.60;99.90;;;;;;5000693;28;20699;-71
2022/08/16 08:28:57;;;;;;;18.52;14.75;;;22.60;99.90;;;;;;4999755;28;20207;-70
2022/08/16 08:31:41;;;;;;;19.17;14.07;;;22.60;99.90;;;;;;5004231;28;20188;-70
2022/08/16 08:34:26;;;;;;;18.08;14.73;;;22.60;99.90;;;;;;4999499;28;20231;-71
2022/08/16 08:37:10;;;;;;;17.33;15.32;;;22.70;99.90;;;;;;5000141;28;20195;-70
2022/08/16 08:39:54;;;;;;;18.02;14.35;;;22.70;99.90;;;;;;5004942;28;20197;-70
2022/08/16 08:42:42;;;;;;;18.23;14.65;;;22.70;99.90;;;;;;5008795;28;20640;-71
2022/08/16 08:45:27;;;;;;;20.55;15.57;;;22.80;99.90;;;;;;5000801;28;20200;-70
2022/08/16 08:48:11;;;;;;;19.15;15.27;;;22.80;99.90;;;;;;4997890;28;20227;-74
2022/08/16 08:50:55;;;;;;;16.95;12.75;;;22.90;99.90;;;;;;5001218;28;20602;-74
2022/08/16 08:53:40;;;;;;;14.93;11.98;;;23.00;99.90;;;;;;5002944;28;20282;-74
2022/08/16 08:56:24;;;;;;;15.02;11.70;;;23.10;99.90;;;;;;5005605;28;20184;-74
2022/08/16 08:59:09;;;;;;;18.42;14.40;;;23.20;99.90;;;;;;4992655;28;20253;-74
2022/08/16 09:01:53;;;;;;;24.73;14.75;;;23.30;99.90;;;;;;4992404;28;20751;-73
2022/08/16 09:04:37;;;;;;;21.27;16.48;;;23.40;99.90;;;;;;4995631;28;20195;-74
2022/08/16 09:07:21;;;;;;;21.80;14.68;;;23.60;99.90;;;;;;4989517;28;20581;-74
2022/08/16 09:10:06;;;;;;;16.92;13.98;;;23.70;99.90;;;;;;4989827;28;20187;-74
2022/08/16 09:12:51;;;;;;;22.08;16.63;;;23.80;99.90;;;;;;5006082;28;20210;-74
2022/08/16 09:15:35;;;;;;;15.98;14.38;;;23.90;99.90;;;;;;4987266;28;20804;-73
2022/08/16 09:18:19;;;;;;;17.45;11.85;;;23.90;99.90;;;;;;5002611;28;20196;-74
2022/08/16 09:21:05;;;;;;;13.07;11.70;;;24.00;99.90;;;;;;4987773;28;20181;-74
2022/08/16 09:23:50;;;;;;;14.25;12.30;;;24.00;99.90;;;;;;4988480;28;20203;-75
2022/08/16 09:26:34;;;;;;;13.48;11.88;;;24.10;99.90;;;;;;4990351;28;20239;-75
2022/08/16 09:29:19;;;;;;;17.65;13.45;;;24.20;99.90;;;;;;4990106;28;20180;-74
2022/08/16 09:32:03;;;;;;;12.27;10.88;;;24.30;99.90;;;;;;5005641;28;20223;-74
2022/08/16 09:34:48;;;;;;;11.70;10.45;;;24.50;99.90;;;;;;4990731;28;20215;-75
2022/08/16 09:37:33;;;;;;;11.95;10.27;;;24.60;99.90;;;;;;4987117;28;20192;-75
2022/08/16 09:40:17;;;;;;;9.82;8.82;;;24.70;99.90;;;;;;5003065;28;20280;-75
2022/08/16 09:43:03;;;;;;;9.13;8.23;;;24.80;99.90;;;;;;4988481;28;20223;-75
2022/08/16 09:45:48;;;;;;;12.32;8.65;;;24.90;99.90;;;;;;5003111;28;20192;-75
2022/08/16 09:48:36;;;;;;;9.48;7.95;;;24.90;99.90;;;;;;4989590;28;20185;-75
2022/08/16 09:51:22;;;;;;;11.52;8.98;;;25.00;99.90;;;;;;5005730;28;20192;-75
2022/08/16 09:54:07;;;;;;;11.95;9.02;;;25.10;99.90;;;;;;4990183;28;20228;-75
2022/08/16 09:56:51;;;;;;;10.82;8.68;;;25.10;99.90;;;;;;5004714;28;20191;-75
2022/08/16 09:59:36;;;;;;;8.30;7.50;;;25.20;99.90;;;;;;5000723;28;20219;-75
2022/08/16 10:02:20;;;;;;;11.07;9.07;;;25.30;99.90;;;;;;4995407;28;20266;-75
2022/08/16 10:05:04;;;;;;;10.48;6.95;;;25.30;99.90;;;;;;4994347;28;20207;-75
2022/08/16 10:07:51;;;;;;;6.35;5.38;;;25.40;99.90;;;;;;5001652;28;20201;-75
2022/08/16 10:10:40;;;;;;;8.95;6.45;;;25.50;99.90;;;;;;4993647;28;20208;-75
2022/08/16 10:13:24;;;;;;;19.85;10.98;;;25.60;99.90;;;;;;5000710;28;20240;-75
2022/08/16 10:16:12;;;;;;;18.65;8.10;;;25.60;99.90;;;;;;4992896;28;20191;-75
2022/08/16 10:18:56;;;;;;;12.18;6.82;;;25.70;99.90;;;;;;5002919;28;20188;-75
2022/08/16 10:21:41;;;;;;;13.55;8.82;;;25.80;99.90;;;;;;4996043;28;20188;-75
2022/08/16 10:24:25;;;;;;;9.23;5.97;;;25.80;99.90;;;;;;5002968;28;20248;-75
2022/08/16 10:27:10;;;;;;;9.18;7.00;;;25.90;99.90;;;;;;4994705;28;20243;-75
2022/08/16 10:29:54;;;;;;;13.93;7.43;;;26.00;99.90;;;;;;5006218;28;20192;-75
2022/08/16 10:32:38;;;;;;;6.25;4.70;;;26.00;99.90;;;;;;4989433;28;20220;-75
2022/08/16 10:35:24;;;;;;;6.03;4.95;;;26.10;99.90;;;;;;4995098;28;20299;-75
2022/08/16 10:38:09;;;;;;;8.20;5.03;;;26.20;99.90;;;;;;5005343;28;20613;-75
2022/08/16 10:40:53;;;;;;;4.85;4.05;;;26.30;99.90;;;;;;5007816;28;20294;-75
2022/08/16 10:43:39;;;;;;;8.15;5.03;;;26.30;99.90;;;;;;4996366;28;20212;-75
2022/08/16 10:46:24;;;;;;;7.55;3.78;;;26.40;99.90;;;;;;4990794;28;20265;-76
2022/08/16 10:49:11;;;;;;;4.20;3.45;;;26.50;99.90;;;;;;5001219;28;20199;-76
2022/08/16 10:51:55;;;;;;;7.05;3.22;;;26.50;99.90;;;;;;4990857;28;20220;-76
2022/08/16 10:54:39;;;;;;;4.63;3.78;;;26.60;99.90;;;;;;5005276;28;20220;-76
2022/08/16 10:57:23;;;;;;;5.95;3.67;;;26.80;99.90;;;;;;4995484;28;20184;-75
2022/08/16 11:00:11;;;;;;;5.07;3.70;;;26.90;99.90;;;;;;4993947;28;20227;-75
2022/08/16 11:02:55;;;;;;;6.57;3.40;;;27.00;99.90;;;;;;4994584;28;20262;-75
2022/08/16 11:05:42;;;;;;;5.82;3.70;;;27.10;99.90;;;;;;5004390;28;20191;-75
2022/08/16 11:08:26;;;;;;;8.38;4.32;;;27.10;99.90;;;;;;5004553;28;20176;-75
2022/08/16 11:11:12;;;;;;;5.60;4.10;;;27.10;99.90;;;;;;4999441;28;20188;-75
2022/08/16 11:13:56;;;;;;;5.93;4.40;;;27.20;99.90;;;;;;5006433;28;20208;-75
2022/08/16 11:16:40;;;;;;;5.28;3.90;;;27.20;99.90;;;;;;4993093;28;20267;-75
2022/08/16 11:19:23;;;;;;;19.80;8.45;;;27.20;99.90;;;;;;5007690;28;20187;-75
2022/08/16 11:22:07;;;;;;;11.73;6.10;;;27.20;99.90;;;;;;4990900;28;20215;-75
2022/08/16 11:24:51;;;;;;;6.05;4.40;;;27.20;99.90;;;;;;5004086;28;20195;-74
2022/08/16 11:27:36;;;;;;;4.43;3.63;;;27.20;99.90;;;;;;5007750;28;20199;-75
2022/08/16 11:30:22;;;;;;;10.18;5.18;;;27.20;99.90;;;;;;4998297;28;20200;-75
2022/08/16 11:33:07;;;;;;;5.57;4.30;;;27.20;99.90;;;;;;4995882;28;20223;-75
2022/08/16 11:35:52;;;;;;;5.30;4.20;;;27.30;99.90;;;;;;5009356;28;20242;-75
2022/08/16 11:38:36;;;;;;;5.50;4.47;;;27.40;99.90;;;;;;5000681;28;20200;-75
2022/08/16 11:41:23;;;;;;;6.47;4.65;;;27.40;99.90;;;;;;5009074;28;20280;-75
2022/08/16 11:44:08;;;;;;;7.97;4.47;;;27.40;99.90;;;;;;5009911;28;20196;-75
2022/08/16 11:46:52;;;;;;;10.13;4.68;;;27.50;99.90;;;;;;4993958;28;20271;-75
2022/08/16 11:49:36;;;;;;;8.52;4.30;;;27.50;99.90;;;;;;4999984;28;20215;-75
2022/08/16 11:52:22;;;;;;;8.13;4.20;;;27.50;99.90;;;;;;4985550;28;20236;-75
2022/08/16 11:55:09;;;;;;;10.60;4.35;;;27.50;99.90;;;;;;4996377;28;20332;-75
2022/08/16 11:57:53;;;;;;;5.65;4.22;;;27.50;99.90;;;;;;4990942;28;20191;-75
2022/08/16 12:00:41;;;;;;;7.85;4.38;;;27.70;99.90;;;;;;4997432;28;20286;-75
2022/08/16 12:03:27;;;;;;;8.48;4.68;;;27.80;99.90;;;;;;5006736;28;20300;-75
2022/08/16 12:06:15;;;;;;;4.97;4.22;;;27.90;99.90;;;;;;4991560;28;20242;-75
2022/08/16 12:08:59;;;;;;;6.10;4.32;;;28.00;99.90;;;;;;5008525;28;20192;-75
2022/08/16 12:11:44;;;;;;;6.63;3.90;;;28.00;99.90;;;;;;4991177;28;20239;-75
2022/08/16 12:14:30;;;;;;;4.78;4.00;;;28.10;99.90;;;;;;5000966;28;20333;-75
2022/08/16 12:17:14;;;;;;;6.50;4.60;;;28.20;99.90;;;;;;4998211;28;20300;-76
2022/08/16 12:20:08;;;;;;;4.93;4.28;;;28.30;99.90;;;;;;4991068;28;20291;-75
2022/08/16 12:22:53;;;;;;;7.28;4.40;;;28.30;99.90;;;;;;5000696;28;20779;-76
2022/08/16 12:25:38;;;;;;;5.38;4.30;;;28.40;99.90;;;;;;5009097;28;20280;-75
2022/08/16 12:28:22;;;;;;;6.32;4.22;;;28.40;99.90;;;;;;5006425;28;20213;-75
2022/08/16 12:31:06;;;;;;;6.45;4.10;;;28.40;99.90;;;;;;4993091;28;20187;-75
2022/08/16 12:33:51;;;;;;;6.60;3.88;;;28.40;99.90;;;;;;5010409;28;20207;-75
2022/08/16 12:36:38;;;;;;;6.82;3.83;;;28.50;99.90;;;;;;5004839;28;20204;-75
2022/08/16 12:39:22;;;;;;;8.50;4.03;;;28.50;99.90;;;;;;5004398;28;20207;-74
2022/08/16 12:42:08;;;;;;;4.35;3.88;;;28.50;99.90;;;;;;4994065;28;20223;-74
2022/08/16 12:44:52;;;;;;;6.50;3.80;;;28.50;99.90;;;;;;4989299;28;20208;-74
2022/08/16 12:50:40;;;;;;;6.82;4.43;;;28.50;99.90;;;;;;5006261;28;20193;-74
2022/08/16 12:53:24;;;;;;;5.15;3.40;;;28.60;99.90;;;;;;4999074;28;20232;-74
2022/08/16 12:56:10;;;;;;;7.20;4.00;;;28.60;99.90;;;;;;5006826;28;20247;-74
2022/08/16 12:58:56;;;;;;;4.10;3.60;;;28.70;99.90;;;;;;5003613;28;20263;-74
2022/08/16 13:01:41;;;;;;;8.80;3.88;;;28.80;99.90;;;;;;4993217;28;20579;-74
2022/08/16 13:04:27;;;;;;;7.20;3.63;;;28.80;99.90;;;;;;4993779;28;20191;-74
2022/08/16 13:07:12;;;;;;;5.38;3.45;;;28.90;99.90;;;;;;4992293;28;20634;-74
2022/08/16 13:09:57;;;;;;;5.50;3.63;;;28.90;99.90;;;;;;5003693;28;20198;-74
2022/08/16 13:12:45;;;;;;;4.57;4.07;;;28.80;99.90;;;;;;4988313;28;20220;-74
2022/08/16 13:15:30;;;;;;;5.30;4.00;;;28.80;99.90;;;;;;4993207;28;20845;-74
2022/08/16 13:18:14;;;;;;;5.20;3.70;;;28.70;99.90;;;;;;4993368;28;20253;-74
2022/08/16 13:20:58;;;;;;;5.05;3.63;;;28.70;99.90;;;;;;5006706;28;20234;-74
2022/08/16 13:23:42;;;;;;;4.95;3.13;;;28.80;99.90;;;;;;5002738;28;20640;-74
2022/08/16 13:26:26;;;;;;;4.85;3.08;;;28.90;99.90;;;;;;4990244;28;20188;-73
2022/08/16 13:29:11;;;;;;;4.60;2.95;;;29.00;99.90;;;;;;5011584;28;20191;-73
2022/08/16 13:31:55;;;;;;;3.85;3.33;;;29.10;99.90;;;;;;4989747;28;20220;-74
2022/08/16 13:34:39;;;;;;;5.65;3.35;;;29.30;99.90;;;;;;4989676;28;20223;-74
2022/08/16 13:37:23;;;;;;;5.63;3.00;;;29.30;99.90;;;;;;4987468;28;20581;-74
2022/08/16 13:40:08;;;;;;;6.97;3.17;;;29.30;99.90;;;;;;5003561;28;20271;-74
2022/08/16 13:42:52;;;;;;;6.35;3.90;;;29.20;99.90;;;;;;4994009;28;20255;-74
2022/08/16 13:45:36;;;;;;;4.00;3.22;;;29.20;99.90;;;;;;4989200;28;20229;-74
2022/08/16 13:48:21;;;;;;;4.72;3.25;;;29.20;99.90;;;;;;4986009;28;20211;-74
2022/08/16 13:51:06;;;;;;;4.40;3.28;;;29.10;99.90;;;;;;5004151;28;20204;-74
2022/08/16 13:53:54;;;;;;;7.45;3.38;;;29.10;99.90;;;;;;5004109;28;20215;-74
2022/08/16 13:56:38;;;;;;;3.80;3.50;;;29.10;99.90;;;;;;5002873;28;20251;-74
2022/08/16 13:59:25;;;;;;;3.50;3.05;;;29.00;99.90;;;;;;4990982;28;20243;-74
2022/08/16 14:02:10;;;;;;;5.38;2.88;;;29.10;99.90;;;;;;5008399;28;20207;-74
2022/08/16 14:04:57;;;;;;;5.53;3.08;;;29.10;99.90;;;;;;5009694;28;20196;-74
2022/08/16 14:07:41;;;;;;;4.35;3.00;;;29.10;99.90;;;;;;4992770;28;20794;-74
2022/08/16 14:10:25;;;;;;;6.65;3.00;;;29.20;99.90;;;;;;5005815;28;20181;-74